Country
Station

 

Weather  for  Lappeenranta  -  Finland    Finland

  
30 °C (86 °F)
    
 
 

Current METAR for Lappeenranta is :

EFLP 171120Z AUTO 08008KT 040V150 CAVOK 30/12 Q1017

 

This is a report for Lappeenranta - Finland.
 
The report was made 13 minutes ago, at 11:20 UTC .
The wind was blowing at a speed of 4.1 meters per second (9.2 miles per hour) from east (080°), varying between northeast (040°) and south/southeast (150°).
 
The temperature was 30 °C (86 °F), with a dew-point at 12 °C (54 °F).
The temperature felt like 29 °C (84 °F).
 
The atmospheric pressure was 1017 hPa (30.03 inHg).
The relative humidity was 33.1%.
 
There were no clouds below 1500 meter (5000 feet) and no cumulonimbus clouds.
 
The overall visibility was greater than 10 kilometers (6.2 miles).
 

 
 
 
 

Country :   A   B   C   D   E   F   G   H   I   J   K   L   M   N   O   P   Q   R   S   T   U   V   W   Y   Z

 

Site Info  |  Disclaimer  |  Credits  |  Privacy
Contact us  |  Add to favorites
© 2013-2018 METARs - All rights reserved